createdAt,value
2024-04-24T00:00:00.680Z,100702.19
2024-04-24T00:02:27.520Z,100696.47
2024-04-24T00:04:54.227Z,100695.84
2024-04-24T00:07:20.915Z,100695.22
2024-04-24T00:09:47.682Z,100693.41
2024-04-24T00:12:14.300Z,100692.25
2024-04-24T00:14:40.902Z,100692.91
2024-04-24T00:17:07.636Z,100691.22
2024-04-24T00:19:34.277Z,100693.50
2024-04-24T00:22:01.047Z,100688.97
2024-04-24T00:24:28.111Z,100690.38
2024-04-24T00:26:54.733Z,100700.66
2024-04-24T00:29:21.390Z,100682.81
2024-04-24T00:31:48.144Z,100695.22
2024-04-24T00:34:14.961Z,100696.22
2024-04-24T00:36:41.592Z,100688.53
2024-04-24T00:39:08.287Z,100676.78
2024-04-24T00:41:34.891Z,100686.16
2024-04-24T00:44:01.580Z,100681.97
2024-04-24T00:46:28.327Z,100688.84
2024-04-24T00:48:55.003Z,100680.53
2024-04-24T00:51:21.608Z,100680.78
2024-04-24T00:53:48.314Z,100672.75
2024-04-24T00:56:15.049Z,100687.06
2024-04-24T00:58:41.698Z,100683.44
2024-04-24T01:01:08.496Z,100690.63
2024-04-24T01:03:35.169Z,100687.63
2024-04-24T01:06:01.832Z,100699.22
2024-04-24T01:08:28.559Z,100695.63
2024-04-24T01:10:55.281Z,100697.31
2024-04-24T01:13:21.956Z,100694.56
2024-04-24T01:15:48.702Z,100698.78
2024-04-24T01:18:15.427Z,100694.47
2024-04-24T01:20:42.119Z,100697.63
2024-04-24T01:23:08.878Z,100699.44
2024-04-24T01:25:35.520Z,100696.06
2024-04-24T01:28:02.232Z,100690.53
2024-04-24T01:30:28.971Z,100689.72
2024-04-24T01:32:55.785Z,100697.41
2024-04-24T01:35:22.773Z,100686.72
2024-04-24T01:37:49.567Z,100693.94
2024-04-24T01:40:16.250Z,100693.94
2024-04-24T01:42:42.884Z,100692.97
2024-04-24T01:45:09.575Z,100704.25
2024-04-24T01:47:36.319Z,100700.06
2024-04-24T01:50:03.030Z,100708.81
2024-04-24T01:52:30.971Z,100705.44
2024-04-24T01:54:57.574Z,100702.69
2024-04-24T01:57:24.182Z,100705.19
2024-04-24T01:59:50.882Z,100709.50
2024-04-24T02:02:17.665Z,100707.94
2024-04-24T02:04:44.345Z,100709.75
2024-04-24T02:07:11.079Z,100710.59
2024-04-24T02:09:37.735Z,100715.63
2024-04-24T02:12:10.507Z,100714.78
2024-04-24T02:14:42.895Z,100725.06
2024-04-24T02:17:09.647Z,100721.97
2024-04-24T02:19:36.203Z,100732.53
2024-04-24T02:22:02.934Z,100729.50
2024-04-24T02:24:29.629Z,100732.66
2024-04-24T02:26:56.268Z,100739.25
2024-04-24T02:29:23.031Z,100742.13
2024-04-24T02:31:49.767Z,100740.69
2024-04-24T02:34:16.446Z,100747.41
2024-04-24T02:36:43.136Z,100750.97
2024-04-24T02:39:09.961Z,100749.56
2024-04-24T02:41:36.613Z,100757.25
2024-04-24T02:44:03.328Z,100764.81
2024-04-24T02:46:29.956Z,100770.91
2024-04-24T02:48:56.667Z,100769.03
2024-04-24T02:51:23.384Z,100772.25
2024-04-24T02:53:50.047Z,100781.97
2024-04-24T02:56:16.696Z,100781.34
2024-04-24T02:58:43.499Z,100773.47
2024-04-24T03:01:10.125Z,100769.97
2024-04-24T03:03:36.856Z,100784.84
2024-04-24T03:06:03.590Z,100780.53
2024-04-24T03:08:30.181Z,100781.22
2024-04-24T03:10:56.942Z,100787.84
2024-04-24T03:13:23.761Z,100782.16
2024-04-24T03:15:50.350Z,100777.38
2024-04-24T03:18:17.038Z,100784.94
2024-04-24T03:20:43.810Z,100784.56
2024-04-24T03:23:10.500Z,100790.81
2024-04-24T03:25:37.108Z,100792.00
2024-04-24T03:28:03.816Z,100787.78
2024-04-24T03:30:30.512Z,100787.97
2024-04-24T03:32:57.245Z,100786.97
2024-04-24T03:35:24.084Z,100790.16
2024-04-24T03:37:50.764Z,100784.75
2024-04-24T03:40:17.551Z,100797.59
2024-04-24T03:42:45.760Z,100794.78
2024-04-24T03:45:12.504Z,100790.28
2024-04-24T03:47:39.241Z,100789.38
2024-04-24T03:50:06.105Z,100787.97
2024-04-24T03:52:32.851Z,100785.72
2024-04-24T03:54:59.458Z,100783.19
2024-04-24T03:57:26.194Z,100787.78
2024-04-24T03:59:52.845Z,100770.84
2024-04-24T04:02:19.560Z,100769.63
2024-04-24T04:04:46.553Z,100776.28
2024-04-24T04:07:13.284Z,100774.28
2024-04-24T04:09:40.038Z,100778.78
2024-04-24T04:12:07.920Z,100784.28
2024-04-24T04:14:35.507Z,100773.44
2024-04-24T04:17:02.248Z,100771.25
2024-04-24T04:19:29.018Z,100775.84
2024-04-24T04:21:55.646Z,100772.81
2024-04-24T04:24:22.281Z,100761.69
2024-04-24T04:26:49.095Z,100764.66
2024-04-24T04:29:15.771Z,100773.91
2024-04-24T04:31:42.392Z,100766.81
2024-04-24T04:34:09.092Z,100769.16
2024-04-24T04:36:35.730Z,100782.75
2024-04-24T04:39:02.391Z,100771.53
2024-04-24T04:41:29.171Z,100773.34
2024-04-24T04:43:55.892Z,100771.84
2024-04-24T04:46:22.546Z,100779.03
2024-04-24T04:48:52.508Z,100777.47
2024-04-24T04:51:19.735Z,100769.56
2024-04-24T04:53:46.456Z,100761.53
2024-04-24T04:56:13.358Z,100762.34
2024-04-24T04:58:40.158Z,100764.59
2024-04-24T05:01:06.821Z,100774.31
2024-04-24T05:03:33.612Z,100763.47
2024-04-24T05:06:00.265Z,100761.22
2024-04-24T05:08:26.936Z,100742.69
2024-04-24T05:10:53.838Z,100750.44
2024-04-24T05:13:20.500Z,100750.06
2024-04-24T05:15:47.221Z,100759.88
2024-04-24T05:18:14.105Z,100754.19
2024-04-24T05:20:40.921Z,100750.63
2024-04-24T05:23:07.618Z,100744.53
2024-04-24T05:25:34.343Z,100743.56
2024-04-24T05:28:01.009Z,100741.53
2024-04-24T05:30:27.808Z,100732.03
2024-04-24T05:32:54.658Z,100746.72
2024-04-24T05:35:21.435Z,100743.25
2024-04-24T05:37:48.377Z,100753.31
2024-04-24T05:40:15.167Z,100751.94
2024-04-24T05:42:41.832Z,100750.31
2024-04-24T05:45:08.462Z,100757.38
2024-04-24T05:47:35.300Z,100764.56
2024-04-24T05:50:02.077Z,100767.34
2024-04-24T05:52:30.782Z,100760.84
2024-04-24T05:54:57.483Z,100760.81
2024-04-24T05:57:26.600Z,100758.78
2024-04-24T05:59:54.732Z,100752.31
2024-04-24T06:02:21.496Z,100752.97
2024-04-24T06:04:48.402Z,100745.59
2024-04-24T06:07:15.107Z,100749.47
2024-04-24T06:09:41.826Z,100743.31
2024-04-24T06:12:08.601Z,100735.06
2024-04-24T06:14:35.377Z,100738.97
2024-04-24T06:17:02.189Z,100756.13
2024-04-24T06:19:28.826Z,100753.25
2024-04-24T06:21:55.488Z,100738.81
2024-04-24T06:24:22.188Z,100728.66
2024-04-24T06:26:48.813Z,100733.00
2024-04-24T06:29:15.513Z,100723.09
2024-04-24T06:31:42.347Z,100726.44
2024-04-24T06:34:10.490Z,100730.78
2024-04-24T06:36:37.899Z,100729.00
2024-04-24T06:39:04.639Z,100738.63
2024-04-24T06:41:31.313Z,100721.84
2024-04-24T06:43:58.016Z,100721.41
2024-04-24T06:46:24.740Z,100726.00
2024-04-24T06:48:51.380Z,100722.09
2024-04-24T06:51:20.322Z,100724.50
2024-04-24T06:53:48.382Z,100729.94
2024-04-24T06:56:15.055Z,100723.69
2024-04-24T06:58:41.699Z,100719.81
2024-04-24T07:01:08.567Z,100721.56
2024-04-24T07:03:35.318Z,100730.44
2024-04-24T07:06:02.217Z,100733.06
2024-04-24T07:08:29.048Z,100717.72
2024-04-24T07:10:55.887Z,100715.25
2024-04-24T07:13:22.569Z,100722.63
2024-04-24T07:15:49.262Z,100725.47
2024-04-24T07:18:16.000Z,100726.19
2024-04-24T07:20:42.692Z,100726.66
2024-04-24T07:23:09.494Z,100725.66
2024-04-24T07:25:36.083Z,100712.91
2024-04-24T07:28:02.777Z,100722.34
2024-04-24T07:30:29.487Z,100717.06
2024-04-24T07:32:56.138Z,100720.56
2024-04-24T07:35:22.965Z,100716.16
2024-04-24T07:37:49.933Z,100726.53
2024-04-24T07:40:16.617Z,100715.94
2024-04-24T07:42:43.249Z,100706.66
2024-04-24T07:45:09.976Z,100693.88
2024-04-24T07:47:36.713Z,100694.03
2024-04-24T07:50:03.508Z,100704.16
2024-04-24T07:52:31.611Z,100700.84
2024-04-24T07:54:58.396Z,100689.22
2024-04-24T07:57:25.027Z,100684.22
2024-04-24T07:59:51.767Z,100673.44
2024-04-24T08:02:18.527Z,100672.56
2024-04-24T08:04:45.345Z,100677.56
2024-04-24T08:07:12.063Z,100678.38
2024-04-24T08:09:38.686Z,100662.09
2024-04-24T08:12:08.180Z,100664.28
2024-04-24T08:14:35.614Z,100656.81
2024-04-24T08:17:02.255Z,100657.56
2024-04-24T08:19:28.928Z,100664.47
2024-04-24T08:21:55.614Z,100651.78
2024-04-24T08:24:22.248Z,100664.78
2024-04-24T08:26:48.879Z,100648.41
2024-04-24T08:29:15.607Z,100643.63
2024-04-24T08:31:42.271Z,100632.94
2024-04-24T08:34:08.895Z,100635.22
2024-04-24T08:36:35.564Z,100642.72
2024-04-24T08:39:02.979Z,100624.94
2024-04-24T08:41:29.733Z,100631.38
2024-04-24T08:43:56.699Z,100626.41
2024-04-24T08:46:23.331Z,100613.72
2024-04-24T08:48:50.002Z,100611.91
2024-04-24T08:51:16.725Z,100606.91
2024-04-24T08:53:43.344Z,100608.75
2024-04-24T08:56:09.967Z,100604.16
2024-04-24T08:58:36.695Z,100597.66
2024-04-24T09:01:03.534Z,100593.97
2024-04-24T09:03:30.327Z,100605.50
2024-04-24T09:05:57.012Z,100599.22
2024-04-24T09:08:23.768Z,100596.66
2024-04-24T09:10:50.501Z,100596.34
2024-04-24T09:13:17.242Z,100592.63
2024-04-24T09:15:43.875Z,100576.91
2024-04-24T09:18:10.718Z,100560.22
2024-04-24T09:20:37.565Z,100568.66
2024-04-24T09:23:04.269Z,100560.22
2024-04-24T09:25:30.914Z,100569.59
2024-04-24T09:27:57.606Z,100553.81
2024-04-24T09:30:24.306Z,100561.59
2024-04-24T09:32:51.027Z,100572.66
2024-04-24T09:35:17.844Z,100566.75
2024-04-24T09:37:44.595Z,100565.66
2024-04-24T09:40:11.263Z,100562.00
2024-04-24T09:42:38.007Z,100554.81
2024-04-24T09:45:04.742Z,100558.22
2024-04-24T09:47:31.727Z,100559.63
2024-04-24T09:49:58.551Z,100562.97
2024-04-24T09:52:25.235Z,100560.56
2024-04-24T09:54:51.855Z,100572.66
2024-04-24T09:57:18.542Z,100581.97
2024-04-24T09:59:45.186Z,100579.47
2024-04-24T10:02:11.937Z,100583.38
2024-04-24T10:04:38.697Z,100574.19
2024-04-24T10:07:05.384Z,100574.13
2024-04-24T10:09:32.002Z,100577.91
2024-04-24T10:11:58.825Z,100564.47
2024-04-24T10:14:25.624Z,100560.91
2024-04-24T10:16:52.295Z,100560.00
2024-04-24T10:19:19.184Z,100572.59
2024-04-24T10:21:45.842Z,100567.84
2024-04-24T10:24:12.512Z,100565.31
2024-04-24T10:26:39.409Z,100566.44
2024-04-24T10:29:06.161Z,100570.44
2024-04-24T10:31:32.865Z,100567.13
2024-04-24T10:33:59.675Z,100562.94
2024-04-24T10:36:26.379Z,100560.00
2024-04-24T10:38:53.238Z,100550.34
2024-04-24T10:41:19.993Z,100548.53
2024-04-24T10:43:46.647Z,100547.44
2024-04-24T10:46:13.387Z,100552.41
2024-04-24T10:48:40.173Z,100543.59
2024-04-24T10:51:06.860Z,100548.41
2024-04-24T10:53:44.522Z,100538.56
2024-04-24T10:56:18.980Z,100529.66
2024-04-24T10:58:45.630Z,100524.41
2024-04-24T11:01:12.281Z,100526.25
2024-04-24T11:03:39.064Z,100521.66
2024-04-24T11:06:05.769Z,100527.56
2024-04-24T11:08:32.449Z,100535.53
2024-04-24T11:10:59.245Z,100513.84
2024-04-24T11:13:25.962Z,100520.25
2024-04-24T11:15:58.699Z,100507.97
2024-04-24T11:18:32.360Z,100515.94
2024-04-24T11:21:00.301Z,100519.84
2024-04-24T11:23:27.008Z,100513.75
2024-04-24T11:25:59.277Z,100516.31
2024-04-24T11:28:27.613Z,100523.13
2024-04-24T11:30:54.493Z,100518.78
2024-04-24T11:33:21.306Z,100516.31
2024-04-24T11:35:48.060Z,100508.13
2024-04-24T11:38:14.837Z,100501.63
2024-04-24T11:40:41.511Z,100501.38
2024-04-24T11:43:08.645Z,100498.53
2024-04-24T11:45:35.355Z,100485.44
2024-04-24T11:48:02.097Z,100475.50
2024-04-24T11:50:28.933Z,100472.44
2024-04-24T11:52:55.771Z,100469.94
2024-04-24T11:55:22.429Z,100468.66
2024-04-24T11:57:49.055Z,100461.78
2024-04-24T12:00:15.849Z,100466.59
2024-04-24T12:02:42.597Z,100467.44
2024-04-24T12:05:09.407Z,100460.59
2024-04-24T12:07:36.137Z,100464.50
2024-04-24T12:10:02.757Z,100462.16
2024-04-24T12:12:32.167Z,100460.16
2024-04-24T12:14:59.530Z,100457.72
2024-04-24T12:17:29.106Z,100461.66
2024-04-24T12:19:56.833Z,100451.25
2024-04-24T12:22:24.628Z,100445.47
2024-04-24T12:24:52.818Z,100443.22
2024-04-24T12:27:22.487Z,100443.56
2024-04-24T12:29:49.498Z,100447.09
2024-04-24T12:32:16.267Z,100439.13
2024-04-24T12:34:42.950Z,100434.56
2024-04-24T12:37:09.941Z,100441.41
2024-04-24T12:39:36.667Z,100434.34
2024-04-24T12:42:03.289Z,100445.41
2024-04-24T12:44:31.938Z,100438.09
2024-04-24T12:46:58.582Z,100440.34
2024-04-24T12:49:25.296Z,100433.59
2024-04-24T12:51:51.999Z,100440.28
2024-04-24T12:54:18.672Z,100440.53
2024-04-24T12:56:45.310Z,100435.28
2024-04-24T12:59:12.090Z,100439.31
2024-04-24T13:01:38.743Z,100426.16
2024-04-24T13:04:05.491Z,100422.38
2024-04-24T13:06:32.215Z,100419.41
2024-04-24T13:08:58.840Z,100414.88
2024-04-24T13:11:25.511Z,100412.38
2024-04-24T13:13:52.225Z,100408.81
2024-04-24T13:16:19.010Z,100404.25
2024-04-24T13:18:45.739Z,100403.16
2024-04-24T13:21:12.551Z,100401.22
2024-04-24T13:23:39.252Z,100397.25
2024-04-24T13:26:06.080Z,100397.34
2024-04-24T13:28:32.801Z,100389.66
2024-04-24T13:30:59.564Z,100391.72
2024-04-24T13:33:26.254Z,100385.59
2024-04-24T13:35:53.135Z,100393.44
2024-04-24T13:38:19.775Z,100383.81
2024-04-24T13:40:46.433Z,100380.34
2024-04-24T13:43:13.160Z,100379.50
2024-04-24T13:45:39.797Z,100380.84
2024-04-24T13:48:06.638Z,100377.03
2024-04-24T13:50:33.731Z,100371.56
2024-04-24T13:53:00.454Z,100370.91
2024-04-24T13:55:27.225Z,100365.59
2024-04-24T13:57:54.085Z,100366.25
2024-04-24T14:00:20.715Z,100362.97
2024-04-24T14:02:47.537Z,100360.63
2024-04-24T14:05:14.361Z,100361.78
2024-04-24T14:07:41.020Z,100368.38
2024-04-24T14:10:07.668Z,100355.69
2024-04-24T14:12:34.392Z,100359.59
2024-04-24T14:15:01.119Z,100349.34
2024-04-24T14:17:28.023Z,100354.31
2024-04-24T14:19:54.811Z,100348.50
2024-04-24T14:22:21.556Z,100348.13
2024-04-24T14:24:48.224Z,100344.69
2024-04-24T14:27:15.058Z,100340.72
2024-04-24T14:29:41.801Z,100336.09
2024-04-24T14:32:08.497Z,100335.78
2024-04-24T14:34:35.211Z,100330.19
2024-04-24T14:37:01.940Z,100330.84
2024-04-24T14:39:28.589Z,100319.78
2024-04-24T14:41:55.412Z,100313.16
2024-04-24T14:44:22.106Z,100317.59
2024-04-24T14:46:48.747Z,100314.94
2024-04-24T14:49:15.551Z,100314.28
2024-04-24T14:51:42.317Z,100305.69
2024-04-24T14:54:08.969Z,100296.91
2024-04-24T14:56:35.733Z,100305.50
2024-04-24T14:59:02.509Z,100298.69
2024-04-24T15:01:29.316Z,100300.06
2024-04-24T15:03:56.060Z,100294.47
2024-04-24T15:06:22.706Z,100293.13
2024-04-24T15:08:49.358Z,100286.03
2024-04-24T15:11:16.296Z,100290.97
2024-04-24T15:13:43.640Z,100292.56
2024-04-24T15:16:10.391Z,100290.47
2024-04-24T15:18:37.203Z,100283.34
2024-04-24T15:21:03.915Z,100279.38
2024-04-24T15:23:30.648Z,100276.34
2024-04-24T15:25:57.411Z,100281.59
2024-04-24T15:28:24.110Z,100279.31
2024-04-24T15:30:50.746Z,100280.94
2024-04-24T15:33:17.811Z,100285.06
2024-04-24T15:35:44.626Z,100282.25
2024-04-24T15:38:11.495Z,100280.06
2024-04-24T15:40:38.249Z,100268.19
2024-04-24T15:43:04.878Z,100263.84
2024-04-24T15:45:31.497Z,100263.03
2024-04-24T15:47:58.434Z,100263.69
2024-04-24T15:50:25.186Z,100258.31
2024-04-24T15:52:51.860Z,100251.56
2024-04-24T15:55:18.553Z,100243.16
2024-04-24T15:57:45.295Z,100238.50
2024-04-24T16:00:11.966Z,100239.47
2024-04-24T16:02:38.754Z,100226.75
2024-04-24T16:05:05.476Z,100232.03
2024-04-24T16:07:32.180Z,100233.13
2024-04-24T16:09:58.918Z,100232.75
2024-04-24T16:12:25.553Z,100234.69
2024-04-24T16:14:52.246Z,100244.22
2024-04-24T16:17:19.048Z,100244.50
2024-04-24T16:19:45.788Z,100246.78
2024-04-24T16:22:12.476Z,100243.50
2024-04-24T16:24:39.176Z,100234.34
2024-04-24T16:27:05.802Z,100232.69
2024-04-24T16:29:32.474Z,100229.69
2024-04-24T16:31:59.399Z,100224.09
2024-04-24T16:34:26.229Z,100218.59
2024-04-24T16:36:52.953Z,100225.03
2024-04-24T16:39:19.720Z,100220.25
2024-04-24T16:41:46.364Z,100223.06
2024-04-24T16:44:13.075Z,100226.50
2024-04-24T16:46:39.803Z,100218.22
2024-04-24T16:49:06.498Z,100220.50
2024-04-24T16:51:33.105Z,100220.31
2024-04-24T16:53:59.782Z,100220.78
2024-04-24T16:56:26.491Z,100217.31
2024-04-24T16:58:53.187Z,100220.31
2024-04-24T17:01:20.213Z,100225.72
2024-04-24T17:03:46.965Z,100218.28
2024-04-24T17:06:13.608Z,100220.38
2024-04-24T17:08:40.377Z,100211.34
2024-04-24T17:11:07.182Z,100217.25
2024-04-24T17:13:33.836Z,100213.31
2024-04-24T17:16:00.624Z,100213.13
2024-04-24T17:18:27.379Z,100215.03
2024-04-24T17:20:54.051Z,100207.56
2024-04-24T17:23:20.845Z,100202.56
2024-04-24T17:25:47.604Z,100200.94
2024-04-24T17:28:14.299Z,100197.31
2024-04-24T17:30:41.115Z,100199.69
2024-04-24T17:33:07.864Z,100194.72
2024-04-24T17:35:34.551Z,100189.78
2024-04-24T17:38:01.537Z,100176.91
2024-04-24T17:40:29.260Z,100186.44
2024-04-24T17:42:56.079Z,100178.56
2024-04-24T17:45:22.786Z,100183.16
2024-04-24T17:47:49.550Z,100183.16
2024-04-24T17:50:19.706Z,100172.88
2024-04-24T17:52:48.178Z,100178.41
2024-04-24T17:55:14.796Z,100178.00
2024-04-24T17:57:41.487Z,100180.28
2024-04-24T18:00:08.337Z,100178.25
2024-04-24T18:02:35.118Z,100173.03
2024-04-24T18:05:01.795Z,100183.41
2024-04-24T18:07:29.146Z,100173.03
2024-04-24T18:09:55.954Z,100167.25
2024-04-24T18:12:22.659Z,100163.31
2024-04-24T18:14:49.355Z,100152.13
2024-04-24T18:17:16.036Z,100150.91
2024-04-24T18:19:42.734Z,100144.44
2024-04-24T18:22:09.475Z,100134.00
2024-04-24T18:24:36.153Z,100134.72
2024-04-24T18:27:02.799Z,100133.59
2024-04-24T18:29:29.739Z,100138.44
2024-04-24T18:31:56.447Z,100134.41
2024-04-24T18:34:23.184Z,100127.25
2024-04-24T18:36:49.879Z,100126.31
2024-04-24T18:39:16.681Z,100130.22
2024-04-24T18:41:43.438Z,100125.81
2024-04-24T18:44:10.334Z,100138.41
2024-04-24T18:46:36.999Z,100130.44
2024-04-24T18:49:03.672Z,100132.00
2024-04-24T18:51:30.428Z,100133.72
2024-04-24T18:53:58.661Z,100126.16
2024-04-24T18:56:25.579Z,100124.00
2024-04-24T18:58:52.391Z,100123.88
2024-04-24T19:01:19.046Z,100129.16
2024-04-24T19:03:45.870Z,100123.50
2024-04-24T19:06:12.625Z,100114.78
2024-04-24T19:08:39.296Z,100122.41
2024-04-24T19:11:06.047Z,100119.63
2024-04-24T19:13:32.769Z,100109.63
2024-04-24T19:15:59.527Z,100107.31
2024-04-24T19:18:26.250Z,100112.91
2024-04-24T19:20:53.112Z,100101.72
2024-04-24T19:23:19.899Z,100099.03
2024-04-24T19:25:46.606Z,100100.69
2024-04-24T19:28:13.312Z,100099.47
2024-04-24T19:30:39.967Z,100098.84
2024-04-24T19:33:06.821Z,100092.44
2024-04-24T19:35:33.632Z,100093.25
2024-04-24T19:38:00.414Z,100092.88
2024-04-24T19:40:27.124Z,100088.09
2024-04-24T19:42:53.816Z,100085.75
2024-04-24T19:45:20.596Z,100076.44
2024-04-24T19:47:47.433Z,100091.22
2024-04-24T19:50:14.737Z,100085.66
2024-04-24T19:52:41.961Z,100088.31
2024-04-24T19:55:08.561Z,100083.78
2024-04-24T19:57:35.749Z,100079.84
2024-04-24T20:00:02.458Z,100079.22
2024-04-24T20:02:31.813Z,100080.03
2024-04-24T20:04:59.385Z,100082.53
2024-04-24T20:07:26.019Z,100089.78
2024-04-24T20:09:52.661Z,100078.81
2024-04-24T20:12:19.450Z,100072.81
2024-04-24T20:14:46.204Z,100061.63
2024-04-24T20:17:12.947Z,100069.38
2024-04-24T20:19:39.749Z,100068.75
2024-04-24T20:22:06.395Z,100064.91
2024-04-24T20:24:33.038Z,100079.44
2024-04-24T20:26:59.717Z,100067.22
2024-04-24T20:29:26.428Z,100068.84
2024-04-24T20:31:53.111Z,100051.47
2024-04-24T20:34:19.841Z,100055.06
2024-04-24T20:36:46.509Z,100060.38
2024-04-24T20:39:13.206Z,100053.09
2024-04-24T20:41:39.920Z,100042.94
2024-04-24T20:44:06.667Z,100045.25
2024-04-24T20:46:33.320Z,100048.03
2024-04-24T20:49:00.177Z,100043.09
2024-04-24T20:51:26.888Z,100043.38
2024-04-24T20:53:53.642Z,100038.63
2024-04-24T20:56:20.348Z,100036.47
2024-04-24T20:58:47.055Z,100030.16
2024-04-24T21:01:13.707Z,100024.75
2024-04-24T21:03:40.437Z,100024.56
2024-04-24T21:06:07.280Z,100021.22
2024-04-24T21:08:34.045Z,100019.06
2024-04-24T21:11:00.986Z,100012.94
2024-04-24T21:13:27.703Z,100017.31
2024-04-24T21:15:56.205Z,100015.97
2024-04-24T21:18:23.188Z,100012.84
2024-04-24T21:20:49.881Z,100003.63
2024-04-24T21:23:16.598Z,99998.03
2024-04-24T21:25:43.341Z,99988.50
2024-04-24T21:28:10.029Z,99993.06
2024-04-24T21:30:36.696Z,99984.59
2024-04-24T21:33:03.579Z,99993.47
2024-04-24T21:35:30.435Z,99981.16
2024-04-24T21:37:57.074Z,99975.56
2024-04-24T21:40:23.784Z,99977.94
2024-04-24T21:42:50.441Z,99969.88
2024-04-24T21:45:17.102Z,99970.69
2024-04-24T21:47:44.039Z,99974.81
2024-04-24T21:50:10.792Z,99967.59
2024-04-24T21:52:37.426Z,99975.66
2024-04-24T21:55:04.259Z,99977.31
2024-04-24T21:57:31.428Z,99969.63
2024-04-24T21:59:58.049Z,99964.88
2024-04-24T22:02:24.807Z,99957.28
2024-04-24T22:04:51.484Z,99967.34
2024-04-24T22:07:18.113Z,99962.28
2024-04-24T22:09:44.830Z,99956.16
2024-04-24T22:12:11.521Z,99957.94
2024-04-24T22:14:38.234Z,99965.19
2024-04-24T22:17:14.353Z,99959.28
2024-04-24T22:19:46.041Z,99963.84
2024-04-24T22:22:12.856Z,99957.75
2024-04-24T22:24:39.519Z,99959.06
2024-04-24T22:27:06.313Z,99945.72
2024-04-24T22:29:34.109Z,99960.72
2024-04-24T22:32:00.786Z,99947.38
2024-04-24T22:34:27.472Z,99938.47
2024-04-24T22:36:54.164Z,99937.97
2024-04-24T22:39:20.812Z,99934.34
2024-04-24T22:41:47.476Z,99931.34
2024-04-24T22:44:14.163Z,99931.34
2024-04-24T22:46:40.791Z,99932.19
2024-04-24T22:49:07.398Z,99925.78
2024-04-24T22:51:34.057Z,99932.78
2024-04-24T22:54:00.696Z,99937.16
2024-04-24T22:56:27.351Z,99932.03
2024-04-24T22:58:54.155Z,99900.00
2024-04-24T23:01:20.880Z,99888.94
2024-04-24T23:03:47.545Z,99885.28
2024-04-24T23:06:14.292Z,99881.13
2024-04-24T23:08:40.945Z,99883.03
2024-04-24T23:11:07.685Z,99871.88
2024-04-24T23:13:34.418Z,99870.03
2024-04-24T23:16:01.034Z,99866.00
2024-04-24T23:18:27.844Z,99865.38
2024-04-24T23:20:54.593Z,99854.50
2024-04-24T23:23:21.234Z,99844.38
2024-04-24T23:25:47.867Z,99844.56
2024-04-24T23:28:14.616Z,99836.28
2024-04-24T23:30:41.326Z,99829.25
2024-04-24T23:33:07.988Z,99819.59
2024-04-24T23:35:34.793Z,99822.16
2024-04-24T23:38:01.423Z,99812.19
2024-04-24T23:40:28.050Z,99806.19
2024-04-24T23:42:54.769Z,99793.72
2024-04-24T23:45:21.443Z,99799.84
2024-04-24T23:47:48.174Z,99794.25
2024-04-24T23:50:14.978Z,99801.97
2024-04-24T23:52:41.688Z,99802.28
2024-04-24T23:55:08.348Z,99808.41
2024-04-24T23:57:35.089Z,99799.72
